Time;durP1;ratioP1;P1;durP2;ratioP2;P2;SDS_P1;SDS_P2;PMS_P1;PMS_P2;Temp;Humidity;BMP_temperature;BMP_pressure;BME280_temperature;BME280_humidity;BME280_pressure;Samples;Min_cycle;Max_cycle;Signal;HPM_P1;HPM_P2
2023/02/07 00:01:22;;;;;;;20.80;12.10;;;;;;;-2.62;90.96;103456.68;107874;1254;73671;-76
2023/02/07 00:03:49;;;;;;;18.10;12.10;;;;;;;-2.66;90.83;103457.61;107907;1252;70997;-74
2023/02/07 00:06:21;;;;;;;16.80;11.10;;;;;;;-2.67;91.08;103465.94;107961;1254;71496;-74
2023/02/07 00:08:49;;;;;;;17.70;11.80;;;;;;;-2.71;91.32;103466.85;107739;1252;61376;-75
2023/02/07 00:11:18;;;;;;;18.10;11.80;;;;;;;-2.77;91.08;103466.77;107641;1254;60462;-75
2023/02/07 00:13:48;;;;;;;17.80;11.40;;;;;;;-2.81;91.16;103464.57;108027;1254;73961;-75
2023/02/07 00:16:15;;;;;;;19.60;13.20;;;;;;;-2.83;91.22;103468.92;107794;1252;69715;-75
2023/02/07 00:18:42;;;;;;;18.20;12.20;;;;;;;-2.86;91.25;103460.98;108592;1254;70559;-74
2023/02/07 00:21:12;;;;;;;25.10;13.70;;;;;;;-2.88;91.25;103449.23;109231;1252;60464;-74
2023/02/07 00:23:39;;;;;;;19.30;11.70;;;;;;;-2.89;91.46;103447.34;109188;1252;60080;-74
2023/02/07 00:26:07;;;;;;;19.40;12.30;;;;;;;-2.91;91.56;103449.98;109162;1252;72929;-74
2023/02/07 00:28:34;;;;;;;17.40;11.70;;;;;;;-2.94;91.55;103449.48;109076;1255;70941;-74
2023/02/07 00:31:11;;;;;;;18.20;12.70;;;;;;;-2.97;91.46;103444.33;108730;1253;70927;-74
2023/02/07 00:33:39;;;;;;;19.50;12.20;;;;;;;-2.97;91.50;103442.08;107951;1254;60888;-75
2023/02/07 00:36:09;;;;;;;17.70;11.80;;;;;;;-3.00;91.55;103439.34;108247;1253;61031;-76
2023/02/07 00:38:36;;;;;;;16.70;11.50;;;;;;;-3.02;91.46;103440.94;107763;1254;73702;-75
2023/02/07 00:41:03;;;;;;;19.60;12.90;;;;;;;-3.05;91.53;103441.99;107719;1254;69611;-75
2023/02/07 00:43:30;;;;;;;19.20;12.70;;;;;;;-3.10;91.60;103444.48;107903;1255;72491;-75
2023/02/07 00:45:58;;;;;;;21.40;13.00;;;;;;;-3.15;91.68;103447.33;107909;1253;60733;-75
2023/02/07 00:48:27;;;;;;;19.80;13.30;;;;;;;-3.18;91.95;103447.88;108072;1254;60470;-74
2023/02/07 00:50:54;;;;;;;19.30;13.00;;;;;;;-3.20;91.95;103448.59;107706;1258;72900;-75
2023/02/07 00:53:21;;;;;;;20.50;13.20;;;;;;;-3.22;92.01;103444.63;108195;1253;70918;-75
2023/02/07 00:55:48;;;;;;;22.10;13.50;;;;;;;-3.22;92.17;103443.09;107804;1254;74262;-76
2023/02/07 00:58:16;;;;;;;19.90;12.80;;;;;;;-3.22;92.22;103451.05;107929;1254;61005;-75
2023/02/07 01:00:43;;;;;;;19.20;12.90;;;;;;;-3.23;92.32;103454.87;107807;1254;61343;-75
2023/02/07 01:03:10;;;;;;;18.90;12.20;;;;;;;-3.25;92.18;103445.88;108213;1254;73557;-75
2023/02/07 01:05:37;;;;;;;20.10;12.90;;;;;;;-3.29;92.08;103443.15;107916;1253;71212;-75
2023/02/07 01:08:04;;;;;;;22.20;13.00;;;;;;;-3.31;92.26;103438.67;107841;1252;72654;-75
2023/02/07 01:10:31;;;;;;;17.80;11.40;;;;;;;-3.34;92.26;103440.27;108150;1253;62877;-74
2023/02/07 01:12:58;;;;;;;19.90;13.00;;;;;;;-3.38;92.52;103443.09;107508;1253;60829;-77
2023/02/07 01:15:26;;;;;;;19.10;12.30;;;;;;;-3.41;92.32;103445.90;107837;1254;74282;-76
2023/02/07 01:17:53;;;;;;;20.20;12.40;;;;;;;-3.43;92.25;103430.52;107779;1254;70186;-74
2023/02/07 01:20:20;;;;;;;18.20;12.80;;;;;;;-3.45;92.34;103427.41;108010;1254;71259;-76
2023/02/07 01:22:47;;;;;;;19.80;12.80;;;;;;;-3.45;92.44;103428.45;107689;1254;60466;-74
2023/02/07 01:25:14;;;;;;;18.90;12.50;;;;;;;-3.48;92.52;103427.61;108172;1254;60539;-74
2023/02/07 01:27:41;;;;;;;19.80;13.00;;;;;;;-3.51;92.39;103425.58;108204;1253;72428;-75
2023/02/07 01:30:08;;;;;;;21.10;13.30;;;;;;;-3.53;92.34;103421.27;107764;1257;72718;-76
2023/02/07 01:32:35;;;;;;;19.90;12.50;;;;;;;-3.54;92.54;103410.73;107960;1254;71307;-75
2023/02/07 01:35:02;;;;;;;19.40;12.40;;;;;;;-3.59;92.44;103401.98;107782;1252;60560;-76
2023/02/07 01:37:29;;;;;;;19.60;12.60;;;;;;;-3.64;92.95;103397.01;107822;1254;60357;-74
2023/02/07 01:39:56;;;;;;;21.00;14.00;;;;;;;-3.64;93.54;103390.63;108092;1254;74680;-74
2023/02/07 01:42:26;;;;;;;19.70;12.90;;;;;;;-3.63;94.05;103389.58;107911;1254;68807;-74
2023/02/07 01:44:53;;;;;;;22.00;13.90;;;;;;;-3.62;95.10;103388.85;108031;1254;70887;-74
2023/02/07 01:47:22;;;;;;;22.40;14.10;;;;;;;-3.60;95.15;103374.82;108453;1254;61415;-75
2023/02/07 01:49:52;;;;;;;20.30;13.20;;;;;;;-3.59;95.33;103370.84;108183;1254;60400;-75
2023/02/07 01:52:24;;;;;;;22.40;14.60;;;;;;;-3.58;95.83;103368.23;107725;1254;74063;-75
2023/02/07 01:54:59;;;;;;;20.70;13.50;;;;;;;-3.56;95.51;103363.36;107721;1254;71175;-75
2023/02/07 01:57:26;;;;;;;21.90;13.60;;;;;;;-3.53;95.51;103366.10;108131;1253;71480;-76
2023/02/07 01:59:56;;;;;;;24.60;13.10;;;;;;;-3.50;95.70;103369.52;108004;1253;61877;-75
2023/02/07 02:02:26;;;;;;;26.60;14.70;;;;;;;-3.48;95.95;103373.47;107925;1254;60836;-76
2023/02/07 02:04:54;;;;;;;24.90;14.30;;;;;;;-3.44;96.15;103372.04;107914;1254;73653;-74
2023/02/07 02:07:22;;;;;;;20.90;11.60;;;;;;;-3.41;95.95;103377.20;107856;1253;69898;-74
2023/02/07 02:09:49;;;;;;;22.20;13.60;;;;;;;-3.37;96.19;103379.23;108052;1252;73000;-74
2023/02/07 02:12:43;;;;;;;22.20;13.80;;;;;;;-3.33;95.93;103377.27;107836;1254;61893;-75
2023/02/07 02:15:30;;;;;;;21.00;13.20;;;;;;;-3.30;95.47;103382.77;108113;1252;60456;-74
2023/02/07 02:18:19;;;;;;;25.10;14.50;;;;;;;-3.26;95.45;103384.45;107783;1253;75135;-75
2023/02/07 02:21:15;;;;;;;20.90;12.90;;;;;;;-3.23;95.22;103378.37;108083;1254;70930;-74
2023/02/07 02:24:06;;;;;;;17.90;12.30;;;;;;;-3.25;94.94;103381.50;108056;1253;71379;-74
2023/02/07 02:26:45;;;;;;;20.80;12.80;;;;;;;-3.27;94.74;103387.06;108337;1251;61998;-77
2023/02/07 02:29:49;;;;;;;22.30;12.90;;;;;;;-3.30;94.54;103388.83;107939;1254;59229;-75
2023/02/07 02:32:40;;;;;;;19.90;12.80;;;;;;;-3.32;94.47;103383.14;108927;1251;71724;-75
2023/02/07 02:35:11;;;;;;;19.00;11.40;;;;;;;-3.34;95.30;103385.41;108711;1253;71078;-76
2023/02/07 02:38:04;;;;;;;20.40;13.80;;;;;;;-3.34;95.39;103384.02;108143;1251;73570;-76
2023/02/07 02:40:39;;;;;;;21.50;12.70;;;;;;;-3.35;95.12;103376.44;108633;1254;61383;-76
2023/02/07 02:43:13;;;;;;;20.50;12.70;;;;;;;-3.34;95.18;103382.83;108121;1253;59974;-75
2023/02/07 02:46:10;;;;;;;19.20;12.50;;;;;;;-3.31;95.19;103387.11;107962;1254;73691;-76
2023/02/07 02:48:37;;;;;;;20.20;12.40;;;;;;;-3.30;94.62;103387.96;108200;1254;70191;-75
2023/02/07 02:51:04;;;;;;;19.60;12.50;;;;;;;-3.31;94.37;103385.04;107721;1254;72612;-75
2023/02/07 02:53:31;;;;;;;21.00;12.70;;;;;;;-3.31;94.24;103380.18;108104;1254;60489;-75
2023/02/07 02:56:12;;;;;;;20.20;13.00;;;;;;;-3.32;94.11;103378.81;108273;1253;58775;-75
2023/02/07 02:59:04;;;;;;;24.40;13.20;;;;;;;-3.36;94.00;103385.80;108070;1251;73533;-75
2023/02/07 03:01:50;;;;;;;22.70;13.90;;;;;;;-3.42;93.75;103383.79;108072;1252;69715;-75
2023/02/07 03:04:32;;;;;;;25.90;15.30;;;;;;;-3.48;93.51;103380.74;107879;1254;72752;-75
2023/02/07 03:07:24;;;;;;;27.70;16.00;;;;;;;-3.51;93.57;103381.46;108309;1252;61016;-74
2023/02/07 03:10:36;;;;;;;24.80;15.00;;;;;;;-3.54;93.59;103373.20;107960;1252;60408;-75
2023/02/07 03:13:25;;;;;;;27.20;15.70;;;;;;;-3.58;93.49;103371.52;107776;1253;72416;-75
2023/02/07 03:16:12;;;;;;;27.70;16.60;;;;;;;-3.59;93.64;103376.53;108227;1251;69688;-74
2023/02/07 03:18:48;;;;;;;26.80;15.90;;;;;;;-3.62;93.41;103382.63;107867;1252;71343;-75
2023/02/07 03:21:33;;;;;;;27.30;16.00;;;;;;;-3.64;93.52;103372.45;108403;1252;61682;-74
2023/02/07 03:24:08;;;;;;;25.30;15.60;;;;;;;-3.65;93.62;103369.53;108164;1251;60351;-77
2023/02/07 03:26:37;;;;;;;25.90;15.60;;;;;;;-3.67;93.52;103374.56;108006;1254;73591;-74
2023/02/07 03:29:06;;;;;;;25.60;15.10;;;;;;;-3.70;93.50;103368.71;108259;1253;70988;-75
2023/02/07 03:31:37;;;;;;;24.30;14.70;;;;;;;-3.72;93.51;103373.74;108034;1253;71833;-74
2023/02/07 03:34:10;;;;;;;23.00;13.90;;;;;;;-3.74;93.53;103369.96;108390;1254;60457;-74
2023/02/07 03:36:43;;;;;;;23.50;14.60;;;;;;;-3.75;93.53;103371.88;108214;1254;60562;-74
2023/02/07 03:39:10;;;;;;;24.50;14.80;;;;;;;-3.77;93.35;103372.07;108179;1253;72446;-74
2023/02/07 03:41:45;;;;;;;22.00;13.30;;;;;;;-3.81;93.19;103370.73;107897;1254;69470;-76
2023/02/07 03:44:15;;;;;;;23.80;14.30;;;;;;;-3.85;93.25;103367.32;108166;1253;71256;-76
2023/02/07 03:46:45;;;;;;;23.90;13.80;;;;;;;-3.87;93.21;103364.39;108197;1253;62470;-74
2023/02/07 03:49:15;;;;;;;22.30;13.40;;;;;;;-3.91;93.05;103359.25;108246;1251;60908;-75
2023/02/07 03:51:45;;;;;;;23.40;14.20;;;;;;;-3.96;93.04;103355.15;107678;1254;73631;-75
2023/02/07 03:54:12;;;;;;;22.60;14.00;;;;;;;-3.97;93.18;103356.38;107994;1251;71034;-75
2023/02/07 03:56:41;;;;;;;22.80;14.10;;;;;;;-3.99;93.21;103356.90;107943;1251;71138;-75
2023/02/07 03:59:08;;;;;;;25.00;14.70;;;;;;;-4.01;93.19;103360.03;108211;1253;62273;-75
2023/02/07 04:01:40;;;;;;;24.70;14.30;;;;;;;-4.04;93.10;103362.66;107919;1251;60444;-75
2023/02/07 04:04:08;;;;;;;23.30;14.30;;;;;;;-4.06;93.06;103361.13;108415;1253;72403;-76
2023/02/07 04:06:36;;;;;;;23.40;14.50;;;;;;;-4.09;93.09;103366.67;107856;1253;71490;-73
2023/02/07 04:09:03;;;;;;;24.20;14.40;;;;;;;-4.13;93.21;103363.77;108160;1254;74644;-74
2023/02/07 04:11:30;;;;;;;24.60;14.50;;;;;;;-4.12;93.27;103369.83;107922;1253;61796;-74
2023/02/07 04:13:57;;;;;;;26.00;15.80;;;;;;;-4.13;93.33;103371.56;107849;1256;60354;-74
2023/02/07 04:16:24;;;;;;;28.80;15.50;;;;;;;-4.15;93.36;103374.52;108206;1253;72649;-75
2023/02/07 04:18:51;;;;;;;26.30;14.90;;;;;;;-4.17;93.31;103376.60;107958;1253;69659;-74
2023/02/07 04:21:18;;;;;;;23.30;14.10;;;;;;;-4.19;93.29;103373.34;107928;1251;72625;-76
2023/02/07 04:23:45;;;;;;;22.40;14.40;;;;;;;-4.20;93.35;103374.56;108019;1251;62426;-75
2023/02/07 04:26:12;;;;;;;25.80;14.60;;;;;;;-4.21;93.36;103381.48;108437;1251;60412;-74
2023/02/07 04:28:39;;;;;;;24.90;14.80;;;;;;;-4.23;93.39;103377.00;107992;1253;75060;-75
2023/02/07 04:31:07;;;;;;;23.30;13.80;;;;;;;-4.23;93.59;103371.15;108098;1253;70398;-75
2023/02/07 04:33:34;;;;;;;22.20;13.60;;;;;;;-4.25;93.37;103375.29;107679;1256;71977;-75
2023/02/07 04:36:02;;;;;;;23.30;14.00;;;;;;;-4.26;93.37;103380.31;108164;1253;60562;-75
2023/02/07 04:38:29;;;;;;;23.50;14.20;;;;;;;-4.29;93.34;103381.04;108033;1251;60448;-74
2023/02/07 04:41:02;;;;;;;22.00;13.80;;;;;;;-4.33;93.32;103376.39;108100;1252;72340;-74
2023/02/07 04:43:30;;;;;;;23.50;14.00;;;;;;;-4.38;93.23;103368.84;107962;1252;71240;-74
2023/02/07 04:45:57;;;;;;;22.60;14.30;;;;;;;-4.43;93.04;103367.67;107933;1253;72445;-74
2023/02/07 04:48:24;;;;;;;25.00;14.80;;;;;;;-4.47;93.15;103368.56;108015;1253;60758;-75
2023/02/07 04:50:51;;;;;;;20.80;13.50;;;;;;;-4.50;93.25;103373.23;107980;1252;60247;-75
2023/02/07 04:53:18;;;;;;;22.10;14.00;;;;;;;-4.52;93.43;103372.91;108112;1252;73960;-75
2023/02/07 04:55:49;;;;;;;22.90;14.50;;;;;;;-4.53;93.50;103368.27;107631;1253;71190;-77
2023/02/07 04:58:17;;;;;;;24.20;14.20;;;;;;;-4.53;93.68;103363.27;107729;1253;71369;-74
2023/02/07 05:00:44;;;;;;;24.70;15.30;;;;;;;-4.55;93.57;103356.38;108302;1252;63105;-75
2023/02/07 05:03:14;;;;;;;25.60;14.50;;;;;;;-4.56;93.64;103360.16;107977;1253;60822;-77
2023/02/07 05:05:43;;;;;;;21.80;13.70;;;;;;;-4.57;93.70;103368.48;107326;1254;72396;-75
2023/02/07 05:08:11;;;;;;;23.70;14.60;;;;;;;-4.60;93.53;103372.29;107567;1254;70020;-75
2023/02/07 05:10:38;;;;;;;23.10;13.80;;;;;;;-4.66;93.57;103367.67;107284;1253;72797;-76
2023/02/07 05:13:06;;;;;;;23.70;14.30;;;;;;;-4.68;93.58;103361.98;107333;1253;62175;-77
2023/02/07 05:15:33;;;;;;;25.30;15.00;;;;;;;-4.71;93.76;103365.98;107314;1257;60504;-74
2023/02/07 05:18:00;;;;;;;25.20;15.00;;;;;;;-4.74;93.92;103368.41;107361;1254;74408;-75
2023/02/07 05:20:27;;;;;;;28.10;14.70;;;;;;;-4.77;93.96;103364.45;107654;1251;69859;-75
2023/02/07 05:22:54;;;;;;;24.60;14.50;;;;;;;-4.79;93.92;103359.46;107748;1253;70492;-74
2023/02/07 05:25:21;;;;;;;25.40;15.00;;;;;;;-4.82;93.98;103357.08;107219;1254;60501;-76
2023/02/07 05:27:49;;;;;;;25.70;15.70;;;;;;;-4.83;94.14;103356.39;107182;1252;60501;-75
2023/02/07 05:30:16;;;;;;;29.30;16.40;;;;;;;-4.82;94.44;103355.00;107437;1253;71589;-75
2023/02/07 05:35:45;;;;;;;25.10;15.50;;;;;;;-4.79;94.84;103354.11;107294;1253;72535;-74
2023/02/07 05:38:14;;;;;;;30.30;17.10;;;;;;;-4.77;95.06;103357.20;107373;1251;61381;-74
2023/02/07 05:40:43;;;;;;;31.70;17.60;;;;;;;-4.74;95.12;103364.44;107947;1253;60788;-73
2023/02/07 05:43:10;;;;;;;30.00;17.40;;;;;;;-4.73;95.30;103365.98;107932;1252;73655;-74
2023/02/07 05:45:38;;;;;;;27.10;16.00;;;;;;;-4.71;95.07;103365.11;108350;1259;71697;-74
2023/02/07 05:48:06;;;;;;;30.50;17.70;;;;;;;-4.70;95.25;103365.62;107475;1253;73642;-76
2023/02/07 05:50:33;;;;;;;28.70;16.40;;;;;;;-4.69;95.31;103373.91;107525;1252;60710;-75
2023/02/07 05:53:03;;;;;;;31.00;17.30;;;;;;;-4.68;95.38;103374.93;107214;1254;60321;-74
2023/02/07 05:55:30;;;;;;;27.90;17.40;;;;;;;-4.66;95.45;103377.33;107500;1252;72472;-74
2023/02/07 05:57:57;;;;;;;31.60;17.40;;;;;;;-4.64;95.43;103371.45;107832;1254;70479;-73
2023/02/07 06:00:24;;;;;;;30.80;17.10;;;;;;;-4.63;95.29;103376.63;107678;1253;72575;-74
2023/02/07 06:02:51;;;;;;;30.50;16.20;;;;;;;-4.64;95.23;103379.20;107382;1253;60949;-75
2023/02/07 06:05:19;;;;;;;29.50;17.50;;;;;;;-4.64;95.02;103378.18;107523;1253;60375;-74
2023/02/07 06:07:46;;;;;;;28.60;16.30;;;;;;;-4.64;94.97;103376.11;107515;1253;73258;-73
2023/02/07 06:10:13;;;;;;;27.60;15.70;;;;;;;-4.64;95.11;103376.80;107321;1253;71787;-74
2023/02/07 06:12:40;;;;;;;29.10;16.70;;;;;;;-4.66;94.77;103374.21;107390;1253;71653;-76
2023/02/07 06:15:08;;;;;;;29.00;16.80;;;;;;;-4.69;94.75;103378.21;107704;1253;61686;-74
2023/02/07 06:17:35;;;;;;;27.00;16.50;;;;;;;-4.73;94.73;103379.45;107635;1253;59445;-74
2023/02/07 06:20:03;;;;;;;30.10;18.20;;;;;;;-4.75;94.72;103382.05;107507;1252;73647;-74
2023/02/07 06:22:30;;;;;;;31.80;18.40;;;;;;;-4.77;94.97;103385.86;107742;1253;69385;-75
2023/02/07 06:24:57;;;;;;;32.90;18.20;;;;;;;-4.78;95.21;103385.35;107268;1253;72429;-76
2023/02/07 06:27:24;;;;;;;31.60;18.30;;;;;;;-4.77;95.39;103383.62;107496;1253;61809;-74
2023/02/07 06:29:51;;;;;;;32.80;18.30;;;;;;;-4.76;95.20;103383.95;107635;1253;60979;-74
2023/02/07 06:32:18;;;;;;;31.40;18.70;;;;;;;-4.75;95.17;103392.41;107740;1254;74064;-80
2023/02/07 06:34:46;;;;;;;34.00;18.70;;;;;;;-4.74;95.29;103396.73;107258;1253;69577;-77
2023/02/07 06:37:13;;;;;;;30.90;18.30;;;;;;;-4.71;95.46;103391.88;107302;1256;72386;-80
2023/02/07 06:39:41;;;;;;;34.30;19.30;;;;;;;-4.66;95.61;103394.26;107416;1253;61752;-77
2023/02/07 06:42:10;;;;;;;29.60;17.90;;;;;;;-4.63;95.32;103399.07;107643;1253;60939;-79
2023/02/07 06:44:37;;;;;;;32.20;18.30;;;;;;;-4.61;95.19;103396.46;107383;1253;73524;-80
2023/02/07 06:47:05;;;;;;;32.90;18.90;;;;;;;-4.58;95.23;103402.50;107162;1254;68854;-79
2023/02/07 06:49:33;;;;;;;32.30;19.50;;;;;;;-4.55;95.19;103405.06;107625;1253;70127;-78
2023/02/07 06:52:00;;;;;;;33.20;19.70;;;;;;;-4.50;95.22;103404.86;107814;1252;62629;-78
2023/02/07 06:54:27;;;;;;;32.50;19.50;;;;;;;-4.47;95.08;103412.95;107787;1253;59150;-76
2023/02/07 06:56:54;;;;;;;32.90;19.60;;;;;;;-4.45;94.97;103410.34;108465;1253;73614;-74
2023/02/07 06:59:21;;;;;;;32.50;19.50;;;;;;;-4.43;94.95;103409.82;107639;1256;69707;-74
2023/02/07 07:01:48;;;;;;;36.30;19.60;;;;;;;-4.39;94.75;103409.61;108030;1253;72114;-75
2023/02/07 07:04:18;;;;;;;31.90;19.60;;;;;;;-4.38;94.68;103405.29;107321;1253;60802;-74
2023/02/07 07:06:46;;;;;;;35.70;20.20;;;;;;;-4.36;94.45;103413.73;107436;1252;61891;-76
2023/02/07 07:09:13;;;;;;;34.90;20.10;;;;;;;-4.35;94.30;103420.81;107367;1251;72960;-75
2023/02/07 07:11:41;;;;;;;34.80;20.50;;;;;;;-4.35;94.24;103427.02;107820;1253;71645;-75
2023/02/07 07:14:10;;;;;;;38.60;20.40;;;;;;;-4.33;94.21;103429.09;107203;1253;71752;-75
2023/02/07 07:16:39;;;;;;;37.30;20.50;;;;;;;-4.32;94.11;103431.67;107410;1254;62775;-76
2023/02/07 07:19:07;;;;;;;34.40;19.90;;;;;;;-4.32;93.98;103432.86;107396;1253;60491;-75
2023/02/07 07:21:37;;;;;;;35.60;19.60;;;;;;;-4.31;93.96;103434.08;107566;1253;74008;-75
2023/02/07 07:24:05;;;;;;;31.80;18.90;;;;;;;-4.27;94.05;103431.80;107504;1253;69886;-75
2023/02/07 07:26:32;;;;;;;35.00;20.40;;;;;;;-4.25;93.89;103426.79;107450;1253;72361;-75
2023/02/07 07:29:15;;;;;;;32.70;19.50;;;;;;;-4.22;94.11;103433.84;107809;1253;60812;-75
2023/02/07 07:31:43;;;;;;;36.50;20.60;;;;;;;-4.17;94.21;103439.86;107378;1253;60425;-76
2023/02/07 07:34:10;;;;;;;33.50;20.10;;;;;;;-4.13;94.03;103436.36;107492;1253;72350;-75
2023/02/07 07:36:37;;;;;;;35.10;21.10;;;;;;;-4.10;93.95;103438.23;107286;1253;71172;-75
2023/02/07 07:39:04;;;;;;;35.90;21.70;;;;;;;-4.05;93.95;103439.77;107617;1254;72659;-75
2023/02/07 07:41:32;;;;;;;37.20;21.20;;;;;;;-4.01;93.88;103435.57;107563;1253;60863;-75
2023/02/07 07:43:59;;;;;;;38.30;21.10;;;;;;;-3.99;93.79;103441.27;107436;1253;60395;-75
2023/02/07 07:46:26;;;;;;;35.60;19.80;;;;;;;-3.94;94.01;103441.73;107249;1254;73599;-76
2023/02/07 07:48:53;;;;;;;34.90;20.10;;;;;;;-3.88;93.95;103438.74;107366;1254;70929;-75
2023/02/07 07:51:20;;;;;;;36.70;21.40;;;;;;;-3.81;94.06;103433.84;107602;1254;71437;-75
2023/02/07 07:53:47;;;;;;;36.10;20.20;;;;;;;-3.74;94.20;103430.83;107596;1253;60913;-76
2023/02/07 07:56:16;;;;;;;35.80;20.10;;;;;;;-3.67;94.06;103435.45;107326;1254;59256;-75
2023/02/07 07:58:47;;;;;;;36.40;20.80;;;;;;;-3.61;94.08;103431.38;107442;1253;73695;-76
2023/02/07 08:01:14;;;;;;;35.20;20.40;;;;;;;-3.54;94.04;103430.28;107474;1253;70124;-76
2023/02/07 08:03:41;;;;;;;37.10;21.50;;;;;;;-3.46;94.15;103430.02;107402;1252;72649;-78
2023/02/07 08:06:09;;;;;;;36.90;21.90;;;;;;;-3.37;94.38;103434.60;107525;1252;62057;-75
2023/02/07 08:08:36;;;;;;;36.40;21.80;;;;;;;-3.28;94.41;103438.13;107624;1253;61389;-75
2023/02/07 08:11:05;;;;;;;36.80;21.80;;;;;;;-3.22;93.89;103433.74;107448;1253;72494;-73
2023/02/07 08:13:40;;;;;;;36.00;20.50;;;;;;;-3.19;93.63;103440.11;107428;1253;69711;-75
2023/02/07 08:16:07;;;;;;;35.20;21.80;;;;;;;-3.17;93.34;103437.13;107350;1254;71557;-75
2023/02/07 08:18:35;;;;;;;38.20;22.10;;;;;;;-3.14;93.21;103437.45;107361;1252;61768;-74
2023/02/07 08:21:02;;;;;;;37.50;22.50;;;;;;;-3.09;93.52;103435.46;107642;1253;60424;-75
2023/02/07 08:23:29;;;;;;;36.00;21.50;;;;;;;-3.00;93.83;103437.27;107643;1253;72847;-73
2023/02/07 08:25:56;;;;;;;37.40;21.30;;;;;;;-2.91;93.83;103436.30;107753;1254;71602;-74
2023/02/07 08:28:27;;;;;;;38.60;22.10;;;;;;;-2.84;93.58;103428.59;107378;1253;72990;-74
2023/02/07 08:30:59;;;;;;;34.10;20.70;;;;;;;-2.79;93.35;103423.32;107211;1253;61728;-74
2023/02/07 08:33:26;;;;;;;35.00;20.60;;;;;;;-2.72;93.51;103417.84;107408;1252;60437;-76
2023/02/07 08:35:57;;;;;;;32.40;20.10;;;;;;;-2.65;93.32;103411.51;107637;1253;73632;-77
2023/02/07 08:38:53;;;;;;;34.80;20.70;;;;;;;-2.56;93.33;103417.27;107513;1256;69711;-79
2023/02/07 08:41:20;;;;;;;36.00;21.40;;;;;;;-2.44;93.46;103421.42;107479;1253;71430;-77
2023/02/07 08:43:47;;;;;;;33.00;20.20;;;;;;;-2.34;93.53;103420.56;107705;1252;61609;-79
2023/02/07 08:46:17;;;;;;;31.20;20.00;;;;;;;-2.23;93.48;103416.08;107255;1254;61017;-76
2023/02/07 08:48:44;;;;;;;32.00;19.90;;;;;;;-2.14;93.32;103414.54;107460;1253;71644;-78
2023/02/07 08:51:11;;;;;;;31.90;19.60;;;;;;;-2.03;93.54;103407.77;107353;1253;70427;-76
2023/02/07 08:53:38;;;;;;;27.10;17.80;;;;;;;-1.93;93.25;103409.50;107431;1253;71623;-78
2023/02/07 08:56:07;;;;;;;26.20;17.50;;;;;;;-1.84;92.89;103406.90;107279;1254;60433;-77
2023/02/07 08:58:34;;;;;;;29.70;18.30;;;;;;;-1.74;92.84;103401.35;107502;1253;60358;-77
2023/02/07 09:01:01;;;;;;;26.50;17.30;;;;;;;-1.63;92.70;103405.31;107950;1253;74151;-78
2023/02/07 09:03:28;;;;;;;27.70;17.50;;;;;;;-1.53;92.57;103410.32;107589;1252;70067;-77
2023/02/07 09:05:58;;;;;;;24.90;16.80;;;;;;;-1.41;92.25;103415.98;107181;1254;71532;-79
2023/02/07 09:08:25;;;;;;;27.90;17.40;;;;;;;-1.29;92.08;103418.02;107514;1253;61337;-77
2023/02/07 09:10:52;;;;;;;25.30;16.70;;;;;;;-1.17;91.78;103419.69;107584;1253;60553;-77
2023/02/07 09:13:19;;;;;;;22.90;15.80;;;;;;;-1.05;91.36;103418.39;107471;1255;72511;-76
2023/02/07 09:15:53;;;;;;;26.20;16.10;;;;;;;-0.96;90.82;103418.87;107353;1254;70458;-78
2023/02/07 09:18:20;;;;;;;23.80;15.10;;;;;;;-0.86;90.50;103424.23;107911;1253;71498;-78
2023/02/07 09:20:47;;;;;;;22.20;15.00;;;;;;;-0.77;89.92;103423.88;107581;1253;61025;-77
2023/02/07 09:23:16;;;;;;;22.70;15.40;;;;;;;-0.71;88.99;103424.59;107622;1253;61523;-79
2023/02/07 09:25:43;;;;;;;24.20;15.60;;;;;;;-0.67;88.34;103418.23;107406;1253;72287;-77
2023/02/07 09:28:10;;;;;;;19.50;13.60;;;;;;;-0.63;87.71;103416.24;107453;1254;70890;-76
2023/02/07 09:30:40;;;;;;;23.10;14.90;;;;;;;-0.59;86.81;103419.64;107608;1253;71495;-75
2023/02/07 09:33:08;;;;;;;22.70;14.70;;;;;;;-0.53;86.70;103421.94;107440;1252;60763;-76
2023/02/07 09:35:37;;;;;;;22.90;14.70;;;;;;;-0.44;86.99;103423.27;107398;1252;60470;-77
2023/02/07 09:38:04;;;;;;;20.50;13.90;;;;;;;-0.32;86.51;103419.53;107520;1254;73592;-74
2023/02/07 09:40:33;;;;;;;22.60;14.90;;;;;;;-0.24;85.74;103418.80;108503;1253;69714;-74
2023/02/07 09:43:14;;;;;;;20.90;14.40;;;;;;;-0.16;85.81;103414.95;107416;1253;71403;-75
2023/02/07 09:45:47;;;;;;;21.60;15.10;;;;;;;-0.02;85.82;103415.30;107618;1253;60361;-75
2023/02/07 09:48:20;;;;;;;20.20;14.30;;;;;;;0.09;85.48;103413.80;107536;1253;60424;-75
2023/02/07 09:50:55;;;;;;;19.70;13.80;;;;;;;0.21;85.24;103416.27;107478;1253;73883;-75
2023/02/07 09:53:32;;;;;;;19.40;12.70;;;;;;;0.33;84.80;103416.10;107441;1256;69687;-75
2023/02/07 09:56:00;;;;;;;19.10;13.20;;;;;;;0.45;83.92;103417.54;107843;1253;71143;-76
2023/02/07 09:58:39;;;;;;;17.90;12.50;;;;;;;0.50;83.03;103412.69;107536;1253;60319;-75
2023/02/07 10:01:28;;;;;;;18.10;13.10;;;;;;;0.55;82.47;103413.45;109243;1253;59056;-75
2023/02/07 10:04:20;;;;;;;20.80;13.90;;;;;;;0.66;83.14;103412.79;107502;1253;73887;-75
2023/02/07 10:06:51;;;;;;;20.30;14.30;;;;;;;0.80;82.60;103413.43;109240;1254;70903;-74
2023/02/07 10:09:25;;;;;;;19.60;12.80;;;;;;;0.86;80.96;103411.70;109203;1253;71474;-74
2023/02/07 10:12:01;;;;;;;18.70;12.60;;;;;;;0.91;80.69;103409.46;107775;1252;59599;-77
2023/02/07 10:14:55;;;;;;;17.60;12.30;;;;;;;1.00;80.02;103408.48;108482;1253;60550;-75
2023/02/07 10:17:52;;;;;;;17.50;12.50;;;;;;;1.09;80.06;103401.75;107550;1254;73875;-75
2023/02/07 10:20:28;;;;;;;19.20;12.70;;;;;;;1.19;79.40;103413.83;107550;1254;68968;-74
2023/02/07 10:23:13;;;;;;;19.20;12.60;;;;;;;1.30;79.47;103419.45;107354;1256;72660;-75
2023/02/07 10:26:10;;;;;;;17.60;12.60;;;;;;;1.37;79.51;103418.52;107559;1253;60230;-74
2023/02/07 10:28:55;;;;;;;18.20;12.40;;;;;;;1.41;78.38;103420.31;107403;1253;60447;-76
2023/02/07 10:31:24;;;;;;;16.60;12.30;;;;;;;1.46;78.95;103422.59;107431;1253;73513;-78
2023/02/07 10:34:01;;;;;;;16.70;11.80;;;;;;;1.53;78.82;103421.85;107745;1252;70265;-78
2023/02/07 10:36:33;;;;;;;17.30;12.50;;;;;;;1.59;78.29;103422.02;107398;1256;73586;-78
2023/02/07 10:39:11;;;;;;;16.30;12.20;;;;;;;1.65;78.12;103426.51;107696;1253;60368;-77
2023/02/07 10:41:41;;;;;;;18.60;12.40;;;;;;;1.72;77.41;103433.46;107552;1253;60042;-82
2023/02/07 10:44:17;;;;;;;15.50;11.60;;;;;;;1.77;77.30;103438.34;107315;1257;72987;-75
2023/02/07 10:46:49;;;;;;;15.80;11.20;;;;;;;1.85;76.43;103441.42;107146;1253;570593;-76
2023/02/07 10:49:24;;;;;;;16.70;11.20;;;;;;;1.92;76.07;103438.36;107720;1253;72577;-76
2023/02/07 10:51:56;;;;;;;15.50;11.30;;;;;;;1.98;75.64;103439.58;107318;1253;61018;-76
2023/02/07 10:54:23;;;;;;;14.20;10.80;;;;;;;2.12;76.02;103439.27;107587;1253;60034;-75
2023/02/07 10:56:57;;;;;;;14.60;10.50;;;;;;;2.19;75.05;103436.41;107586;1252;72668;-75
2023/02/07 10:59:32;;;;;;;14.80;10.70;;;;;;;2.30;74.51;103430.47;107261;1253;72366;-77
2023/02/07 11:01:59;;;;;;;13.70;10.40;;;;;;;2.33;73.60;103429.80;107503;1253;70535;-77
2023/02/07 11:04:41;;;;;;;12.20;8.80;;;;;;;2.37;73.23;103430.72;107522;1252;60549;-76
2023/02/07 11:07:14;;;;;;;13.40;9.60;;;;;;;2.40;71.55;103431.33;107368;1254;59062;-75
2023/02/07 11:09:41;;;;;;;13.50;10.30;;;;;;;2.41;71.43;103428.11;107398;1253;73856;-75
2023/02/07 11:12:15;;;;;;;14.50;10.20;;;;;;;2.43;71.41;103426.32;107786;1253;71004;-77
2023/02/07 11:15:00;;;;;;;13.30;9.30;;;;;;;2.48;70.76;103425.63;107478;1256;71352;-75
2023/02/07 11:17:28;;;;;;;14.70;10.10;;;;;;;2.49;69.48;103417.04;107150;1253;60947;-74
2023/02/07 11:19:55;;;;;;;14.30;10.20;;;;;;;2.53;69.93;103418.99;107406;1254;60746;-76
2023/02/07 11:22:23;;;;;;;15.50;10.60;;;;;;;2.60;70.00;103414.00;107570;1254;73703;-74